Terminal Aerodrome Forecast
Issued by NWS Bismarck, ND

Home | Current Version | Previous Version | Text Only | Print | Product List | Glossary On
Versions: 1 2 3 4 5 6 7 8 9 10 11 12 13 14 15 16 17
000
FTUS43 KBIS 022323
TAFBIS
TAF
KBIS 022323Z 0300/0324 07006KT P6SM VCTS SCT040CB BKN100
      TEMPO 0300/0301 6SM -TSRA BKN040CB OVC100
     FM030100 04008KT P6SM SCT050 BKN120
     FM030400 35008KT P6SM OVC015
     FM031400 02012KT P6SM OVC025=

USA.gov is the U.S. government's official web portal to all federal, state and local government web resources and services.